Tiempo atmosférico en la estación meteorológica de Madrid, Madrid (667 m.)



Fecha
DESCASC
Temp. máxima en grados centígrados (hora)
DESCASC
Temp. mínima en grados centígrados (hora)
DESCASC
Temp. media en grados centígrados
DESCASC
Racha de viento máxima en m/sg (hora)
DESCASC
Velocidad máxima media en intervalos de 10 minutos(hora)
DESCASC
Precipitaciones diarias en mm
DESCASC
Precipitaciones de 00:00 a 06:00 en mm
DESCASC
Precipitaciones de 06:00 a 12:00 en mm
DESCASC
Precipitaciones de 12:00 a 18:00 en mm
DESCASC
Precipitaciones de 18:00 a 24:00 en mm
DESCASC

Gráficas

Temp. máximas Temp. mínimas Temp. medias Precipitaciones Rachas de viento máximas Velocidades máximas media en intervalos de 10 minutos

Datos horarios

Fecha y hora oficial Temperatura (ºC) Velocidad del viento (km/h) Dirección del viento Racha (km/h) Dirección de racha Precipitación (mm) Presión (hPa) Tendencia (hPa) Humedad (%)
2019-07-19 23:00:00 29.9 5 Oeste 9 Oeste 0 935.7 0.4 26
2019-07-19 22:00:00 31.3 4 Oeste 14 Oeste 0 935.3 -0.2 26
2019-07-19 21:00:00 33.3 6 Sudoeste 19 Oeste 0 935.2 -0.8 25
2019-07-19 20:00:00 33.4 4 Oeste 22 Sudoeste 0 935.3 -1.3 25
2019-07-19 19:00:00 35.4 9 Oeste 25 Sudoeste 0 935.5 -1.5 23
2019-07-19 18:00:00 36 9 Sudoeste 31 Sudoeste 0 936 -1.7 22
2019-07-19 17:00:00 35.8 8 Sudoeste 29 Sudoeste 0 936.6 -1.8 22
2019-07-19 16:00:00 36.1 12 Sudoeste 31 Oeste 0 937 -1.7 23
2019-07-19 15:00:00 35.3 11 Sudoeste 22 Sudoeste 0 937.7 -1.3 25
2019-07-19 14:00:00 34.4 6 Sudeste 21 Sur 0 938.4 -0.6 27
2019-07-19 13:00:00 32.2 4 Sudeste 18 Sudeste 0 938.7 -0.6 29
2019-07-19 12:00:00 29.3 3 Sudeste 13 Este 0 939 0.2 32
2019-07-19 11:00:00 27.4 4 Sudeste 13 Sur 0 939 0.4 35
2019-07-19 10:00:00 25.5 4 Este 17 Este 0 939.3 1 36
2019-07-19 09:00:00 24 7 Nordeste 19 Nordeste 0 938.8 0.5 37
2019-07-19 08:00:00 22.8 8 Nordeste 19 Nordeste 0 938.6 0.2 37
2019-07-19 07:00:00 22.8 9 Nordeste 25 Nordeste 0 938.3 0 36
2019-07-19 06:00:00 23.6 11 Nordeste 30 Nordeste 0 938.3 0.2 35
2019-07-19 05:00:00 23.9 11 Nordeste 28 Nordeste 0 938.4 0.3 35
2019-07-19 04:00:00 24.7 12 Nordeste 27 Nordeste 0 938.3 0.2 34
2019-07-19 03:00:00 25.4 11 Nordeste 33 Nordeste 0 938.1 0.3 34
2019-07-19 02:00:00 26.3 15 Nordeste 32 Nordeste 0 938.1 0.9 32
2019-07-19 01:00:00 27.8 14 Nordeste 35 Nordeste 0 938.1 1.5 31
2019-07-19 00:00:00 29.7 16 Nordeste 32 Nordeste 0 937.8 1.4 28
2019-07-18 23:00:00 30.6 9 Nordeste 21 Norte 0 937.2 1 28
2019-07-18 22:00:00 30.9 5 Este 10 Noroeste 0 936.6 0.3 27
2019-07-18 21:00:00 31.7 4 Sudoeste 12 Sudoeste 0 936.4 -0.2 27
2019-07-18 20:00:00 32.4 0 Calma 10 Oeste 0 936.2 -0.9 26
2019-07-18 19:00:00 32.8 0 Calma 14 Sur 0 936.3 -1.4 25
2019-07-18 18:00:00 32 8 Oeste 17 Oeste 0 936.6 -1.4 28
2019-07-18 17:00:00 33.9 7 Sudoeste 18 Sur 0 937.1 -1.4 25
2019-07-18 16:00:00 35.3 6 Sur 19 Sudoeste 0 937.7 -1.1 24
2019-07-18 15:00:00 34 0 Calma 15 Sudeste 0 938 -1.3 25
2019-07-18 14:00:00 33.1 6 Sur 17 Sudeste 0 938.5 -0.5 29
2019-07-18 13:00:00 31 9 Sudeste 18 Sudeste 0 938.8 0 31
2019-07-18 12:00:00 30 6 Este 14 Sudeste 0 939.3 0.6 34
2019-07-18 11:00:00 26.6 5 Este 15 Este 0 939 0.7 38
2019-07-18 10:00:00 24.2 9 Este 18 Este 0 938.8 1.3 42
2019-07-18 09:00:00 22.4 4 Este 21 Nordeste 0 938.7 1.3 47
2019-07-18 08:00:00 21.7 6 Nordeste 24 Nordeste 0 938.3 1.1 47
2019-07-18 07:00:00 21.9 5 Nordeste 21 Nordeste 0 937.5 0.2 47
2019-07-18 06:00:00 22.6 10 Nordeste 22 Nordeste 0 937.4 -0.1 45
2019-07-18 05:00:00 23.2 11 Nordeste 23 Nordeste 0 937.2 -0.4 43
2019-07-18 04:00:00 24 12 Nordeste 23 Nordeste 0 937.3 0 41
2019-07-18 03:00:00 24 7 Nordeste 15 Nordeste 0 937.5 0.2 38
2019-07-18 02:00:00 24.5 4 Nordeste 15 Norte 0 937.6 0.7 35
2019-07-18 01:00:00 25.2 0 Calma 10 Oeste 0 937.3 1.3 34
2019-07-18 00:00:00 26.4 5 Noroeste 19 Oeste 0 937.3 1.4 32
2019-07-17 23:00:00 27.3 10 Oeste 22 Oeste 0 936.9 1.2 31
2019-07-17 22:00:00 28 5 Oeste 10 Oeste 0 936 0.3 28
2019-07-17 21:00:00 29.4 4 Oeste 10 Norte 0 935.9 -0.3 26
2019-07-17 20:00:00 30.7 2 Noroeste 15 Oeste 0 935.7 -0.4 25
2019-07-17 19:00:00 30.8 3 Noroeste 15 Oeste 0 935.7 -0.9 25
2019-07-17 18:00:00 30.9 3 Oeste 15 Nordeste 0 936.2 -0.7 25
2019-07-17 17:00:00 31.2 3 Nordeste 18 Oeste 0 936.1 -1.2 22
2019-07-17 16:00:00 33.2 5 Sudoeste 21 Oeste 0 936.6 -0.9 23
2019-07-17 15:00:00 33 7 Sur 21 Sudoeste 0 936.9 -1 25
2019-07-17 14:00:00 31.5 8 Sudoeste 19 Sur 0 937.3 -0.4 27
2019-07-17 13:00:00 30.9 4 Sur 16 Sudoeste 0 937.5 -0.1 29
2019-07-17 12:00:00 28.8 4 Sudoeste 17 Sur 0 937.9 0.7 34
2019-07-17 11:00:00 26.8 5 Sudeste 16 Sudeste 0 937.7 1 36
2019-07-17 10:00:00 24.2 6 Sur 16 Sudeste 0 937.6 1.2 38
2019-07-17 09:00:00 23.1 8 Sudeste 14 Sudeste 0 937.2 1.2 38
2019-07-17 08:00:00 22.5 6 Este 12 Este 0 936.7 1 36
2019-07-17 07:00:00 22.7 3 Este 8 Sudeste 0 936.4 0.9 37
2019-07-17 06:00:00 22.7 0 Calma 6 Sudeste 0 936 0.3 40
2019-07-17 05:00:00 23.5 3 Sur 10 Sudeste 0 935.7 0.4 38
2019-07-17 04:00:00 23.8 0 Calma 5 Este 0 935.5 0.1 39
2019-07-17 03:00:00 25 3 Este 12 Nordeste 0 935.7 0.5 38
2019-07-17 02:00:00 25.4 3 Oeste 12 Sudoeste 0 935.3 0.5 32
2019-07-17 01:00:00 27.4 5 Noroeste 20 Norte 0 935.4 1.1 31
2019-07-17 00:00:00 28.8 8 Norte 18 Norte 0 935.2 1 28
2019-07-16 23:00:00 29 6 Noroeste 14 Oeste 0 934.8 0.3 28
2019-07-16 22:00:00 29.2 8 Noroeste 19 Noroeste 0 934.3 -0.5 28
2019-07-16 21:00:00 31.5 0 Calma 11 Sudeste 0 934.2 -1.1 25
2019-07-16 20:00:00 33.5 6 Sudeste 17 Sudeste 0 934.5 -1.7 23
2019-07-16 19:00:00 33.7 7 Oeste 21 Sur 0 934.8 -1.7 24
2019-07-16 18:00:00 35.1 5 Sudoeste 23 Sudoeste 0 935.3 -1.9 22
2019-07-16 17:00:00 33.6 5 Sur 29 Sudoeste 0 936.2 -1.6 24
2019-07-16 16:00:00 36.2 8 Sudoeste 25 Sudoeste 0 936.5 -1.7 22
2019-07-16 15:00:00 35.2 6 Sudeste 19 Sudeste 0 937.2 -1.4 24
2019-07-16 14:00:00 33.9 9 Este 22 Sudeste 0 937.8 -0.8 26
2019-07-16 13:00:00 31.5 6 Sudeste 16 Sudeste 0 938.2 -0.5 29
2019-07-16 12:00:00 29.7 6 Sudeste 19 Este 0 938.6 -0.3 31
2019-07-16 11:00:00 27.1 6 Sudeste 21 Este 0 938.6 0.5 32
2019-07-16 10:00:00 24.6 5 Nordeste 17 Nordeste 0 938.7 0.4 33
2019-07-16 09:00:00 22.6 11 Nordeste 19 Nordeste 0 938.9 1.1 34
2019-07-16 08:00:00 21.8 11 Nordeste 22 Nordeste 0 938.1 0.4 35
2019-07-16 07:00:00 21.8 12 Nordeste 25 Nordeste 0 938.3 0.7 34
2019-07-16 06:00:00 22.2 8 Nordeste 19 Nordeste 0 937.8 0.2 33
2019-07-16 05:00:00 23.1 7 Nordeste 23 Nordeste 0 937.7 0.1 32
2019-07-16 04:00:00 23.9 12 Nordeste 27 Nordeste 0 937.6 0.2 31
2019-07-16 03:00:00 25 12 Nordeste 26 Nordeste 0 937.6 0.5 28
2019-07-16 02:00:00 26 10 Nordeste 23 Nordeste 0 937.6 0.9 26
2019-07-16 01:00:00 26.6 9 Nordeste 26 Nordeste 0 937.4 1.3 26
2019-07-16 00:00:00 27.5 11 Nordeste 24 Nordeste 0 937.1 1.4 26
2019-07-15 23:00:00 29 12 Nordeste 24 Nordeste 0 936.7 1.3 25
2019-07-15 22:00:00 29.7 8 Norte 22 Norte 0 936.1 0.7 21
2019-07-15 21:00:00 31.1 9 Noroeste 26 Norte 0 935.7 0.4 21
2019-07-15 20:00:00 32.7 12 Norte 30 Noroeste 0 935.4 0 19
2019-07-15 19:00:00 33.4 10 Noroeste 35 Noroeste 0 935.4 -0.6 21
2019-07-15 18:00:00 33.8 13 Noroeste 36 Noroeste 0 935.3 -1.2 22
2019-07-15 17:00:00 33.2 12 Noroeste 27 Noroeste 0 935.4 -1.7 26
2019-07-15 16:00:00 35 12 Oeste 27 Sudoeste 0 936 -1.3 25
2019-07-15 15:00:00 34 6 Oeste 22 Oeste 0 936.5 -1.1 26
2019-07-15 14:00:00 32 5 Oeste 15 Oeste 0 937.1 -0.7 28
2019-07-15 13:00:00 30 3 Sudoeste 14 Oeste 0 937.3 -0.8 29
2019-07-15 12:00:00 28.5 3 Sur 12 Sudoeste 0 937.6 0.7 31
2019-07-15 11:00:00 25.1 4 Sudeste 14 Nordeste 0 937.8 1.4 33
2019-07-15 10:00:00 23.1 8 Este 18 Este 0 938.1 0.7 36
2019-07-15 09:00:00 21 6 Este 19 Nordeste 0 936.9 0 38
2019-07-15 08:00:00 20.1 9 Nordeste 18 Este 0 936.4 -0.3 39
2019-07-15 07:00:00 20.2 7 Nordeste 20 Nordeste 0 937.4 0.7 40
2019-07-15 06:00:00 21.2 10 Nordeste 22 Este 0 936.9 -0.1 38
2019-07-15 05:00:00 22.1 9 Nordeste 26 Este 0 936.7 -0.1 38
2019-07-15 04:00:00 23.1 9 Este 24 Este 0 936.7 -0.2 35
2019-07-15 03:00:00 23.8 8 Nordeste 23 Sudeste 0 937 0 34
2019-07-15 02:00:00 25.1 9 Nordeste 22 Nordeste 0 936.8 -0.1 31
2019-07-15 01:00:00 25.6 14 Nordeste 28 Nordeste 0 936.9 0.7 31
2019-07-15 00:00:00 26.6 8 Nordeste 25 Nordeste 0 937 1.3 29
2019-07-14 23:00:00 28 12 Nordeste 24 Nordeste 0 936.9 1.4 26
2019-07-14 22:00:00 28.4 8 Norte 20 Noroeste 0 936.2 0.9 29
2019-07-14 21:00:00 30.3 8 Nordeste 22 Nordeste 0 935.7 0.2 28
2019-07-14 20:00:00 29.9 0 Calma 8 Este 0 935.5 -0.3 29
2019-07-14 19:00:00 30.7 5 Oeste 19 Sudoeste 0 935.3 -0.8 30
2019-07-14 18:00:00 30.8 6 Oeste 21 Sudoeste 0 935.5 -1.1 32
2019-07-14 17:00:00 31.2 5 Oeste 14 Noroeste 0 935.8 -1.1 31
2019-07-14 16:00:00 30.4 2 Sudeste 13 Sudeste 0 936.1 -0.9 31
2019-07-14 15:00:00 31.8 0 Calma 17 Norte 0 936.6 -0.5 32
2019-07-14 14:00:00 30.7 6 Este 20 Norte 0 936.9 -0.2 33
2019-07-14 13:00:00 29.4 5 Noroeste 23 Este 0 937 0.3 35
2019-07-14 12:00:00 27.9 4 Noroeste 18 Norte 0 937.1 0.9 38
2019-07-14 11:00:00 25.5 4 Noroeste 14 Nordeste 0 937.1 1.3 41
2019-07-14 10:00:00 24.1 8 Nordeste 19 Nordeste 0 936.7 1.5 45
2019-07-14 09:00:00 22.1 7 Nordeste 18 Norte 0 936.2 1.2 47
2019-07-14 08:00:00 21.3 6 Norte 21 Norte 0 935.8 0.7 50
2019-07-14 07:00:00 21.2 10 Norte 23 Nordeste 0 935.2 0.1 49
2019-07-14 06:00:00 21.7 8 Nordeste 24 Sudeste 0 935 -0.4 48
2019-07-14 05:00:00 22 7 Este 20 Este 0 935.1 -0.4 48
2019-07-14 04:00:00 21.7 2 Sudoeste 6 Sudoeste 0 935.1 -0.5 46
2019-07-14 03:00:00 22.8 0 Calma 19 Oeste 0 935.4 -0.1 43
2019-07-14 02:00:00 24.2 8 Oeste 21 Oeste 0 935.5 -0.1 38
2019-07-14 01:00:00 25.3 6 Noroeste 33 Oeste 0 935.6 0.7 32
2019-07-14 00:00:00 26.4 16 Oeste 45 Oeste 0 935.5 0.9 29
2019-07-13 23:00:00 27.6 16 Oeste 36 Oeste 0 935.6 1.3 28
2019-07-13 22:00:00 28.9 14 Oeste 34 Oeste 0 934.9 0.7 28
2019-07-13 21:00:00 30.5 15 Oeste 40 Sudoeste 0 934.6 -0.5 24
2019-07-13 20:00:00 33 14 Sudoeste 33 Sudoeste 0 934.3 -1.6 23
2019-07-13 19:00:00 33.6 10 Sudoeste 27 Sudoeste 0 934.2 -2.5 25
2019-07-13 18:00:00 33.9 14 Sudoeste 34 Oeste 0 935.1 -2.3 25
2019-07-13 17:00:00 34.5 13 Sudoeste 32 Sudoeste 0 935.9 -1.6 26
2019-07-13 16:00:00 34.6 8 Sudoeste 30 Sudoeste 0 936.7 -0.9 26
2019-07-13 15:00:00 33.1 14 Sudoeste 35 Sudoeste 0 937.4 -1.9 27
2019-07-13 14:00:00 34.3 6 Sudeste 23 Norte 0 937.5 -0.9 25
2019-07-13 13:00:00 32.3 13 Norte 27 Norte 0 937.6 -1.5 26
2019-07-13 12:00:00 29.7 5 Oeste 13 Noroeste 0 939.3 1.6 28
2019-07-13 11:00:00 29.8 0 Calma 12 Sur 0 938.4 0.6 29
2019-07-13 10:00:00 28.4 3 Sur 15 Nordeste 0 939.1 0.9 29
2019-07-13 09:00:00 26.5 8 Este 18 Nordeste 0 937.7 0 31
2019-07-13 08:00:00 25.2 4 Nordeste 14 Nordeste 0 937.8 0.1 32
2019-07-13 07:00:00 26.1 2 Este 17 Sur 0 938.2 0.4 28
2019-07-13 06:00:00 26.3 5 Nordeste 13 Este 0 937.7 -0.3 29
2019-07-13 05:00:00 26.9 7 Este 11 Este 0 937.7 -0.8 29
2019-07-13 04:00:00 27.3 3 Nordeste 10 Este 0 937.8 -1 28
2019-07-13 03:00:00 27.2 6 Norte 15 Noroeste 0 938 -0.9 28
2019-07-13 02:00:00 28.2 7 Noroeste 17 Noroeste 0 938.5 0.1 28
2019-07-13 01:00:00 28.6 8 Noroeste 18 Oeste 0 938.8 0.6 27
2019-07-13 00:00:00 29.2 3 Oeste 10 Noroeste 0 938.9 0.8 27
2019-07-12 23:00:00 30.1 0 Calma 3 Oeste 0 938.4 0 24
2019-07-12 22:00:00 31.4 3 Noroeste 5 Sudeste 0 938.2 0.2 25
2019-07-12 21:00:00 32.9 3 Noroeste 14 Oeste 0 938.1 -0.8 22
2019-07-12 20:00:00 34.9 5 Oeste 9 Noroeste 0 938.4 -0.7 22
2019-07-12 19:00:00 36 5 Noroeste 20 Sudoeste 0 938 -1.4 21
2019-07-12 18:00:00 37.4 9 Sudoeste 27 Sudoeste 0 938.9 -1 19
2019-07-12 17:00:00 38.1 8 Sudoeste 24 Sur 0 939.1 -1.1 19
2019-07-12 16:00:00 37.5 6 Sudoeste 18 Sudoeste 0 939.4 -1 21
2019-07-12 15:00:00 37.3 4 Sudoeste 17 Oeste 0 939.9 -0.5 22
2019-07-12 14:00:00 36.1 3 Sur 11 Sudoeste 0 940.2 -0.1 22
2019-07-12 13:00:00 34.4 4 Sur 12 Sudeste 0 940.4 0.3 24
2019-07-12 12:00:00 32.2 0 Calma 9 Sudeste 0 940.4 0.7 26
2019-07-12 11:00:00 29.3 3 Sudeste 13 Este 0 940.3 1 28
2019-07-12 10:00:00 27.4 5 Este 16 Nordeste 0 940.1 1.2 30
2019-07-12 09:00:00 25 8 Nordeste 20 Nordeste 0 939.7 1.1 31
2019-07-12 08:00:00 24 6 Nordeste 17 Nordeste 0 939.3 0.8 31
2019-07-12 07:00:00 24.3 6 Nordeste 17 Nordeste 0 938.9 0.9 29
2019-07-12 06:00:00 24.2 6 Nordeste 17 Nordeste 0 938.6 0.5 30
2019-07-12 05:00:00 24.8 7 Nordeste 16 Nordeste 0 938.5 0.4 29
2019-07-12 04:00:00 26.8 8 Nordeste 17 Norte 0 938 -0.3 26
2019-07-12 03:00:00 27.6 9 Nordeste 18 Nordeste 0 938.1 -0.1 25
2019-07-12 02:00:00 26.1 5 Norte 8 Noroeste 0 938.1 0.1 28
2019-07-12 01:00:00 27.2 2 Sudoeste 5 Sur 0 938.3 0.9 25
2019-07-12 00:00:00 28.1 3 Sur 8 Sur 0 938.2 0.9 25
2019-07-11 23:00:00 29.7 3 Sudeste 7 Sudeste 0 938 0.9 21
2019-07-11 22:00:00 30.8 3 Sudoeste 14 Sudoeste 0 937.4 0.2 21
2019-07-11 21:00:00 33.4 8 Sudoeste 20 Sudoeste 0 937.3 -0.2 21
2019-07-11 20:00:00 34.5 4 Sur 19 Oeste 0 937.1 -0.7 19
2019-07-11 19:00:00 35 7 Sudoeste 17 Sudoeste 0 937.2 -1.2 19
2019-07-11 18:00:00 35.7 3 Sudoeste 19 Sudoeste 0 937.5 -1.3 20
2019-07-11 17:00:00 35.3 2 Oeste 19 Oeste 0 937.8 -1.5 20
2019-07-11 16:00:00 36.8 7 Sur 22 Sudoeste 0 938.4 -1.2 19
2019-07-11 15:00:00 35.9 8 Sur 17 Oeste 0 938.8 -0.9 21
2019-07-11 14:00:00 34.2 3 Sur 15 Sudoeste 0 939.3 -0.3 22
2019-07-11 13:00:00 32.5 7 Sudoeste 14 Sudoeste 0 939.6 0.1 26
2019-07-11 12:00:00 30.7 4 Sudeste 12 Este 0 939.7 0.7 31
2019-07-11 11:00:00 27.2 3 Sudeste 10 Este 0 939.6 1.6 34
2019-07-11 10:00:00 25 2 Este 12 Nordeste 0 939.5 1.1 36
2019-07-11 09:00:00 22.5 5 Nordeste 15 Nordeste 0 939 0.8 38
2019-07-11 08:00:00 21.5 8 Nordeste 17 Nordeste 0 938 0.1 38
2019-07-11 07:00:00 21.1 4 Nordeste 14 Nordeste 0 938.4 0.5 38
2019-07-11 06:00:00 21.8 4 Nordeste 19 Nordeste 0 938.2 0.4 36
2019-07-11 05:00:00 22.3 9 Nordeste 18 Nordeste 0 937.9 0 35
2019-07-11 04:00:00 22.8 4 Nordeste 21 Nordeste 0 937.9 -0.2 33
2019-07-11 03:00:00 22.9 3 Este 13 Este 0 937.8 -0.4 33
2019-07-11 02:00:00 23.3 3 Noroeste 5 Noroeste 0 937.9 -0.3 31
2019-07-11 01:00:00 24.4 3 Sur 8 Sudeste 0 938.1 0.7 30
2019-07-11 00:00:00 25.4 3 Sur 8 Sur 0 938.2 0.8 30
2019-07-10 23:00:00 26.5 5 Sudeste 8 Sur 0 938.2 1.1 29
2019-07-10 22:00:00 27.3 6 Sur 11 Sur 0 937.4 0.2 27
2019-07-10 21:00:00 29.4 0 Calma 12 Sur 0 937.4 -0.1 25
2019-07-10 20:00:00 30.4 2 Sur 16 Sudeste 0 937.1 -0.7 25
2019-07-10 19:00:00 31.2 3 Sudoeste 11 Sudoeste 0 937.2 -1 25
2019-07-10 18:00:00 31.3 0 Calma 10 Sudeste 0 937.5 -1.2 24
2019-07-10 17:00:00 31.8 4 Sudeste 15 Sur 0 937.8 -1.6 24
2019-07-10 16:00:00 31.3 4 Sur 16 Sur 0 938.2 -1.5 25
2019-07-10 15:00:00 29.9 4 Este 15 Nordeste 0 938.7 -1.2 28
2019-07-10 14:00:00 29 5 Norte 18 Este 0 939.4 -0.1 30
2019-07-10 13:00:00 27.7 6 Nordeste 22 Norte 0 939.7 -0.1 34
2019-07-10 12:00:00 25.8 12 Nordeste 27 Nordeste 0 939.9 0 36
2019-07-10 11:00:00 23.2 10 Nordeste 30 Este 0 939.5 0.1 40
2019-07-10 10:00:00 21 8 Nordeste 24 Nordeste 0 939.8 0.2 41
2019-07-10 09:00:00 19.6 3 Nordeste 17 Nordeste 0 939.9 0.7 43
2019-07-10 08:00:00 18 8 Nordeste 16 Nordeste 0 939.4 0.7 46
2019-07-10 07:00:00 17.7 2 Nordeste 17 Nordeste 0 939.6 0.5 46
2019-07-10 06:00:00 18.3 5 Nordeste 22 Nordeste 0 939.2 0 44
2019-07-10 05:00:00 18.6 7 Nordeste 19 Nordeste 0 938.7 -0.6 44
2019-07-10 04:00:00 19.3 11 Nordeste 30 Nordeste 0 939.1 0.1 43
2019-07-10 03:00:00 20.1 6 Nordeste 24 Nordeste 0 939.2 -0.6 42
2019-07-10 02:00:00 21 7 Nordeste 21 Nordeste 0 939.3 0.2 41
2019-07-10 01:00:00 21.7 8 Nordeste 22 Nordeste 0 939 0.9 39
2019-07-10 00:00:00 22.7 7 Este 32 Nordeste 0 939.8 2 36
2019-07-09 23:00:00 23.3 9 Nordeste 31 Nordeste 0 939.1 1.8 36
2019-07-09 22:00:00 24.1 10 Nordeste 31 Este 0 938.1 1.1 35
2019-07-09 21:00:00 25.2 11 Este 35 Nordeste 0 937.8 1 33
2019-07-09 20:00:00 25.9 13 Este 31 Este 0 937.3 0.2 33
2019-07-09 19:00:00 26.8 15 Nordeste 31 Nordeste 0 937 -0.2 32
2019-07-09 18:00:00 28 5 Nordeste 15 Este 0 936.8 -0.6 29
2019-07-09 17:00:00 26.3 3 Oeste 14 Norte 0 937.1 -0.7 32
2019-07-09 16:00:00 29.6 2 Este 19 Oeste 0 937.2 -1 27
2019-07-09 15:00:00 29.4 3 Sur 18 Oeste 0 937.4 -0.8 28
2019-07-09 14:00:00 27.5 0 Calma 18 Sudoeste 0 937.8 -0.1 29
2019-07-09 13:00:00 26.5 2 Oeste 21 Oeste 0 938.2 1.2 31
2019-07-09 12:00:00 25.3 5 Sudoeste 21 Sudoeste 0 938.2 0.7 34
2019-07-09 11:00:00 23.3 6 Oeste 19 Oeste 0 937.9 0.5 38
2019-07-09 10:00:00 21 2 Nordeste 10 Noroeste 0 937 0.3 42
2019-07-09 09:00:00 19.6 0 Calma 10 Este 0 937.5 1.5 46
2019-07-09 08:00:00 17.5 0 Calma 6 Oeste 0 937.4 2.4 51
2019-07-09 07:00:00 17.5 4 Oeste 9 Noroeste 0 936.7 1 49
2019-07-09 06:00:00 18.1 0 Calma 15 Nordeste 0 936 -0.7 45
2019-07-09 05:00:00 19 7 Nordeste 16 Nordeste 0 935 -1.4 44
2019-07-09 04:00:00 19.3 4 Nordeste 12 Nordeste 0 935.7 -1.1 42
2019-07-09 03:00:00 19 3 Norte 17 Este 0 936.7 0.7 42
2019-07-09 02:00:00 19.9 6 Este 17 Nordeste 0 936.4 0.3 41
2019-07-09 01:00:00 20.5 3 Nordeste 19 Nordeste 0 936.8 1.3 41
2019-07-09 00:00:00 20.3 4 Noroeste 33 Noroeste 0 936 1.9 40
2019-07-08 23:00:00 21.2 13 Noroeste 47 Oeste 0 936.1 2.8 38
2019-07-08 22:00:00 24.7 15 Oeste 37 Oeste 0 935.5 2.3 28
2019-07-08 21:00:00 26.4 13 Oeste 32 Oeste 0 934.1 0.6 28
2019-07-08 20:00:00 27.8 10 Oeste 30 Sudoeste 0 933.3 -0.6 28
2019-07-08 19:00:00 28.8 13 Sudoeste 33 Oeste 0 933.2 -1.2 28
2019-07-08 18:00:00 28.3 6 Sudoeste 28 Oeste 0 933.5 -1.4 28
2019-07-08 17:00:00 28.5 10 Oeste 28 Sudoeste 0 933.9 -1.7 29
2019-07-08 16:00:00 30.2 12 Oeste 30 Sudoeste 0 934.4 -1.7 25
2019-07-08 15:00:00 30.7 10 Sudoeste 30 Sudoeste 0 934.9 -1.5 27
2019-07-08 14:00:00 29.7 8 Sur 22 Oeste 0 935.6 -0.7 29
2019-07-08 13:00:00 28.3 9 Sudoeste 24 Sudoeste 0 936.1 -0.4 29
2019-07-08 12:00:00 26.8 3 Sur 17 Sur 0 936.4 0.4 33
2019-07-08 11:00:00 23.7 5 Oeste 13 Oeste 0 936.3 0.8 38
2019-07-08 10:00:00 21.5 3 Sur 11 Sudoeste 0 936.5 1.2 40
2019-07-08 09:00:00 20.4 5 Sudeste 11 Sudeste 0 936 1.7 41
2019-07-08 08:00:00 19.3 4 Sur 13 Sur 0 935.5 1.3 41
2019-07-08 07:00:00 19.2 4 Sudoeste 14 Sudoeste 0 935.3 1 41
2019-07-08 06:00:00 20 6 Sudoeste 13 Sudoeste 0 934.3 0.5 38
2019-07-08 05:00:00 21.1 5 Sudoeste 14 Sudoeste 0 934.2 0.3 36
2019-07-08 04:00:00 22.3 5 Sur 13 Sudoeste 0 934.3 0.4 32
2019-07-08 03:00:00 23.5 7 Oeste 18 Sudoeste 0 933.8 -0.1 29
2019-07-08 02:00:00 24.2 8 Oeste 18 Oeste 0 933.9 0 28
2019-07-08 01:00:00 24.8 7 Oeste 19 Oeste 0 933.9 1 28
2019-07-08 00:00:00 25.8 7 Oeste 16 Oeste 0 933.9 0.8 27
2019-07-07 23:00:00 27.2 6 Oeste 11 Oeste 0 933.9 0.7 26
2019-07-07 22:00:00 28.5 5 Noroeste 13 Noroeste 0 932.9 -0.8 24
2019-07-07 21:00:00 29.9 5 Norte 15 Noroeste 0 933.1 -1.4 24
2019-07-07 20:00:00 31.2 3 Noroeste 17 Oeste 0 933.2 -2.2 23
2019-07-07 19:00:00 31.6 6 Noroeste 14 Oeste 0 933.7 -2.4 22
2019-07-07 18:00:00 31.3 6 Noroeste 22 Noroeste 0 934.5 -2 23
2019-07-07 17:00:00 30.3 7 Oeste 28 Sudoeste 0 935.4 -1.7 25
2019-07-07 16:00:00 33.8 6 Sudoeste 25 Sudoeste 0 936.1 -1.7 21
2019-07-07 15:00:00 32.5 3 Oeste 21 Sur 0 936.5 -1.7 22
2019-07-07 14:00:00 32.7 0 Calma 22 Sur 0 937.1 -1.1 24
2019-07-07 13:00:00 30.7 4 Sur 22 Sur 0 937.8 -0.5 26
2019-07-07 12:00:00 29.2 4 Sur 14 Sur 0 938.2 1.3 27
2019-07-07 11:00:00 26.2 3 Sudoeste 11 Oeste 0 938.2 0.3 30
2019-07-07 10:00:00 23.7 4 Oeste 10 Oeste 0 938.3 0.8 32
2019-07-07 09:00:00 21.1 2 Oeste 6 Oeste 0 936.9 0.1 34
2019-07-07 08:00:00 19.5 0 Calma 5 Oeste 0 937.9 0.9 36
2019-07-07 07:00:00 19.6 0 Calma 11 Noroeste 0 937.5 0.5 34
2019-07-07 06:00:00 19.8 4 Noroeste 8 Noroeste 0 936.8 -0.5 34
2019-07-07 05:00:00 21.2 3 Oeste 14 Oeste 0 937 -0.2 32
2019-07-07 04:00:00 21.8 0 Calma 9 Oeste 0 937 -0.2 32
2019-07-07 03:00:00 22.4 4 Noroeste 16 Oeste 0 937.3 0.4 32
2019-07-07 02:00:00 23.3 7 Oeste 11 Oeste 0 937.2 1 30
2019-07-07 01:00:00 24.7 3 Oeste 17 Noroeste 0 937.2 1.4 28
2019-07-07 00:00:00 26 7 Noroeste 16 Oeste 0 936.9 1.1 26
2019-07-06 23:00:00 27.5 5 Oeste 20 Noroeste 0 936.2 0.4 25
2019-07-06 22:00:00 28.9 10 Oeste 28 Oeste 0 935.8 -0.2 22
2019-07-06 21:00:00 30.9 11 Oeste 29 Sudoeste 0 935.8 -0.6 19
2019-07-06 20:00:00 32.1 10 Sudoeste 33 Sudoeste 0 935.8 -1 18
2019-07-06 19:00:00 32.7 13 Sudoeste 35 Sudoeste 0 936 -1.7 18
2019-07-06 18:00:00 33.5 9 Sudoeste 29 Sudoeste 0 936.4 -1.8 18
2019-07-06 17:00:00 33.8 3 Sudoeste 41 Oeste 0 936.8 -1.7 18
2019-07-06 16:00:00 34 10 Sudoeste 34 Oeste 0 937.7 -1.1 19
2019-07-06 15:00:00 33.4 9 Oeste 28 Sudoeste 0 938.2 -0.4 19
2019-07-06 14:00:00 32.4 10 Sudoeste 32 Oeste 0 938.5 -0.1 20
2019-07-06 13:00:00 31.3 7 Sur 29 Sudoeste 0 938.8 0.2 24
2019-07-06 12:00:00 29.6 6 Sur 17 Sur 0 938.6 0.9 26
2019-07-06 11:00:00 26.3 4 Sudoeste 13 Sur 0 938.6 0.4 29
2019-07-06 10:00:00 24.2 3 Sur 11 Sur 0 938.6 0.4 31
2019-07-06 09:00:00 22.2 5 Sur 12 Sudeste 0 937.7 -0.4 33
2019-07-06 08:00:00 20.1 5 Este 9 Este 0 938.2 -0.4 35
2019-07-06 07:00:00 19.5 0 Calma 8 Oeste 0 938.2 -0.9 35
2019-07-06 06:00:00 19.6 5 Oeste 8 Oeste 0 938.1 -0.7 35
2019-07-06 05:00:00 21.1 3 Sudoeste 9 Sudoeste 0 938.6 -0.2 33
2019-07-06 04:00:00 22.1 2 Sur 12 Sur 0 939.1 0.3 32
2019-07-06 03:00:00 22.4 0 Calma 6 Oeste 0 938.8 0.1 33
2019-07-06 02:00:00 23.2 4 Oeste 8 Oeste 0 938.8 0.4 31
2019-07-06 01:00:00 24.6 5 Oeste 12 Oeste 0 938.8 0.9 28
2019-07-06 00:00:00 25.9 6 Oeste 16 Oeste 0 938.7 0.7 26
2019-07-05 23:00:00 26.7 6 Oeste 17 Oeste 0 938.4 0.6 24
2019-07-05 22:00:00 28.6 4 Oeste 22 Oeste 0 937.9 -0.1 23
2019-07-05 21:00:00 29.4 8 Oeste 31 Oeste 0 938 -0.6 23
2019-07-05 20:00:00 31.9 11 Sudoeste 26 Oeste 0 937.8 -1.1 22
2019-07-05 19:00:00 32.3 8 Oeste 27 Sudoeste 0 938 -1.5 22
2019-07-05 18:00:00 32.8 15 Sudoeste 33 Sudoeste 0 938.6 -1.4 22
2019-07-05 17:00:00 32.9 9 Sudoeste 24 Sudoeste 0 938.9 -1.6 24
2019-07-05 16:00:00 33.1 8 Oeste 25 Sudoeste 0 939.5 -1.3 25
2019-07-05 15:00:00 32.5 6 Sudoeste 32 Sur 0 940 -0.8 25
2019-07-05 14:00:00 31 8 Sudoeste 28 Sudoeste 0 940.5 -0.4 26
2019-07-05 13:00:00 30.6 10 Sudoeste 23 Sur 0 940.8 -0.3 28
2019-07-05 12:00:00 28.4 9 Sudoeste 21 Sur 0 940.8 0.5 32
2019-07-05 11:00:00 25.8 4 Sudoeste 15 Noroeste 0 940.9 1.2 33
2019-07-05 10:00:00 24.2 4 Sudoeste 13 Noroeste 0 941.1 1.4 35
2019-07-05 09:00:00 22.3 5 Oeste 14 Oeste 0 940.3 0.5 37
2019-07-05 08:00:00 21.4 3 Sur 9 Sudeste 0 939.7 0.1 38
2019-07-05 07:00:00 21.7 3 Sur 8 Sudeste 0 939.7 0.2 38
2019-07-05 06:00:00 23 5 Sur 18 Sur 0 939.8 0.2 36
2019-07-05 05:00:00 23.7 9 Sur 19 Sur 0 939.6 -0.2 35
2019-07-05 04:00:00 24.3 9 Sudeste 32 Sur 0 939.5 0.2 35
2019-07-05 03:00:00 25 10 Sur 27 Sudeste 0 939.6 1 35
2019-07-05 02:00:00 25.9 11 Sur 33 Sur 0 939.8 2.3 33
2019-07-05 01:00:00 26.9 19 Sudeste 39 Sudeste 0 939.3 2.5 32
2019-07-05 00:00:00 27.7 12 Sur 36 Sur 0 938.6 1.9 31
2019-07-04 23:00:00 28 5 Sudoeste 11 Sudoeste 0 937.5 1.1 27
2019-07-04 22:00:00 29.6 7 Sudoeste 22 Sur 0 936.8 0.1 25
2019-07-04 21:00:00 31.4 8 Sur 28 Sur 0 936.7 -0.4 23
2019-07-04 20:00:00 32.3 11 Sudeste 21 Sur 0 936.4 -1.3 22
2019-07-04 19:00:00 32.6 6 Sur 20 Sur 0 936.7 -1.5 22
2019-07-04 18:00:00 32.5 10 Sur 23 Sudeste 0 937.1 -1.6 24
2019-07-04 17:00:00 31.4 4 Sudoeste 24 Sudoeste 0 937.7 -1.5 27
2019-07-04 16:00:00 32.1 12 Sudeste 27 Sur 0 938.2 -0.8 24
2019-07-04 15:00:00 31.5 10 Sudeste 26 Sur 0 938.7 -0.8 25
2019-07-04 14:00:00 30.8 9 Sur 30 Este 0 939.2 0 27
2019-07-04 13:00:00 30.3 12 Sudeste 24 Sudeste 0 939 -0.2 28
2019-07-04 12:00:00 28 5 Este 18 Este 0 939.5 0.1 31
2019-07-04 11:00:00 26.2 6 Este 18 Este 0 939.2 0.3 33
2019-07-04 10:00:00 24 10 Este 19 Sudeste 0 939.2 0.7 35
2019-07-04 09:00:00 23 5 Sudeste 22 Sudeste 0 939.4 1.2 36
2019-07-04 08:00:00 22.4 8 Sudeste 20 Este 0 938.9 1.2 36
2019-07-04 07:00:00 22.6 8 Sudeste 21 Sudeste 0 938.5 0.9 36
2019-07-04 06:00:00 23.1 9 Sudeste 22 Sudeste 0 938.2 0.9 35
2019-07-04 05:00:00 23.9 9 Sudeste 27 Sudeste 0 937.7 1.1 34
2019-07-04 04:00:00 24.3 9 Sudeste 24 Sur 0 937.6 1.4 33
2019-07-04 03:00:00 24.9 11 Sur 36 Sudeste 0 937.3 1.2 32
2019-07-04 02:00:00 26 16 Sur 40 Sur 0 936.6 1.2 30
2019-07-04 01:00:00 27.1 19 Sudeste 45 Sur 0 936.2 1.2 28
2019-07-04 00:00:00 28.8 17 Sudeste 46 Sudeste 0 936.1 1.4 25
2019-07-03 23:00:00 30.8 14 Sudeste 31 Sudeste 0 935.4 0.8 20
2019-07-03 22:00:00 31.7 12 Sudeste 22 Sudeste 0 935 0.3 20
2019-07-03 21:00:00 32.2 10 Sudeste 23 Sudeste 0 934.7 -0.2 20
2019-07-03 20:00:00 33 8 Sudeste 26 Sur 0 934.6 -0.6 19
2019-07-03 19:00:00 33.9 15 Sur 36 Sudeste 0 934.7 -1.2 19
2019-07-03 18:00:00 34.5 13 Sur 34 Sudeste 0 934.9 -1.7 19
2019-07-03 17:00:00 34.8 10 Sur 35 Sur 0 935.2 -2.2 21
2019-07-03 16:00:00 34.7 14 Sudeste 30 Sur 0 935.9 -1.8 23
2019-07-03 15:00:00 34 10 Sudeste 30 Sudeste 0 936.6 -1.6 24
2019-07-03 14:00:00 32.6 10 Sudeste 28 Sudeste 0.1 937.4 -0.6 26
2019-07-03 13:00:00 30.7 7 Sudeste 26 Sur 0 937.7 -0.3 33
2019-07-03 12:00:00 -- 10 Sudeste 27 Sudeste 0 938.2 0.3 --
2019-07-03 11:00:00 -- 9 Sudeste 23 Sudeste 0 938 0.3 --
2019-07-03 10:00:00 -- 8 Este 21 Este 0.1 938 0.8 --
2019-07-03 09:00:00 -- 8 Este 25 Este 0 937.9 0.6 --
2019-07-03 08:00:00 -- 8 Este 19 Este 0 937.7 0.6 --
2019-07-03 07:00:00 -- 7 Sudeste 16 Este 0 937.2 0.1 --
2019-07-03 06:00:00 -- 3 Sudeste 20 Este 0 937.3 0.1 --
2019-07-03 05:00:00 -- 8 Nordeste 23 Nordeste 0 937.1 0.2 --
2019-07-03 04:00:00 -- 10 Nordeste 23 Nordeste 0 937.1 0.6 --
2019-07-03 03:00:00 -- 9 Nordeste 25 Este 0 937.2 0.6 --
2019-07-03 02:00:00 -- 13 Este 33 Este 0 936.9 1.2 --
2019-07-03 01:00:00 -- 9 Nordeste 36 Este 0 936.5 1.1 --
2019-07-03 00:00:00 -- 9 Este 19 Nordeste 1.2 936.6 1.4 --
2019-07-02 23:00:00 -- 13 Este 22 Sudeste 0.4 935.7 0.9 --
2019-07-02 22:00:00 -- 2 Sudoeste 13 Sur 0 935.4 0.1 --
2019-07-02 21:00:00 -- 6 Sur 15 Sudeste 0 935.2 -0.6 --
2019-07-02 20:00:00 -- 2 Sur 25 Sudoeste 0 934.8 -1.5 --
2019-07-02 19:00:00 -- 3 Sur 18 Sudoeste 0 935.3 -1.7 --
2019-07-02 18:00:00 -- 5 Sudoeste 24 Sur 0 935.8 -2 --
2019-07-02 17:00:00 -- 4 Sudoeste 24 Sudeste 0 936.3 -2 --
2019-07-02 16:00:00 -- 3 Sur 19 Sudoeste 0 937 -1.6 --
2019-07-02 15:00:00 -- 0 Calma 19 Sudoeste 0 937.8 -1.2 --
2019-07-02 14:00:00 -- 4 Sudeste 18 Sudeste 0 938.3 -0.6 --
2019-07-02 13:00:00 -- 6 Sur 17 Sur 0 938.6 -0.6 --
2019-07-02 12:00:00 -- 4 Este 15 Este 0 939 -0.2 --
2019-07-02 11:00:00 -- 5 Sudeste 17 Sudeste 0 938.9 -0.1 --
2019-07-02 10:00:00 -- 4 Sudeste 15 Sudeste 0 939.2 0.6 --
2019-07-02 09:00:00 -- 4 Este 14 Este 0 939.2 1 --
2019-07-02 08:00:00 -- 6 Nordeste 15 Nordeste 0 939 0.7 --
2019-07-02 07:00:00 -- 6 Este 13 Este 0 938.6 0.1 --
2019-07-02 06:00:00 -- 5 Este 15 Nordeste 0 938.2 0 --
2019-07-02 05:00:00 -- 8 Este 22 Este 0 938.3 -0.6 --
2019-07-02 04:00:00 -- 13 Este 25 Este 0 938.5 -0.5 --
2019-07-02 03:00:00 -- 6 Nordeste 16 Nordeste 0 938.2 -1.2 --
2019-07-02 02:00:00 -- 7 Nordeste 14 Nordeste 0 938.9 -0.3 --
2019-07-02 01:00:00 -- 8 Nordeste 25 Nordeste 0 939 0.4 --
2019-07-02 00:00:00 -- 13 Nordeste 38 Nordeste 0 939.4 1.6 --
2019-07-01 23:00:00 -- 15 Nordeste 46 Nordeste 0 939.2 1.9 --
2019-07-01 22:00:00 -- 18 Nordeste 41 Este 0 938.6 1.6 --
2019-07-01 21:00:00 -- 5 Oeste 25 Noroeste 0 937.8 0.2 --
2019-07-01 20:00:00 -- 9 Oeste 32 Oeste 0 937.3 -0.5 --
2019-07-01 19:00:00 -- 13 Oeste 36 Oeste 0 937 -1.3 --
2019-07-01 18:00:00 -- 9 Sudoeste 29 Sudoeste 0 937.6 -1.2 --
2019-07-01 17:00:00 -- 9 Sudoeste 29 Sudoeste 0 937.8 -1.6 --
2019-07-01 16:00:00 -- 11 Sudoeste 29 Sudoeste 0 938.3 -1.5 --
2019-07-01 15:00:00 -- 7 Sudoeste 20 Oeste 0 938.8 -1.3 --
2019-07-01 14:00:00 -- 3 Sudoeste 14 Sur 0 939.4 -0.6 --
2019-07-01 13:00:00 -- 5 Oeste 13 Oeste 0 939.8 -0.3 --
2019-07-01 12:00:00 31.3 4 Este 15 Este 0 940.1 0.4 39
2019-07-01 11:00:00 29.3 5 Nordeste 14 Nordeste 0 940 0.6 41
2019-07-01 10:00:00 27.4 4 Este 14 Nordeste 0 940.1 1 43
2019-07-01 09:00:00 25.5 6 Nordeste 14 Nordeste 0 939.7 0.8 44
2019-07-01 08:00:00 24.4 4 Nordeste 14 Nordeste 0 939.4 0.7 46
2019-07-01 07:00:00 23.9 3 Nordeste 15 Norte 0 939.1 0.5 45
2019-07-01 06:00:00 23.9 5 Nordeste 13 Nordeste 0 938.9 0.1 44
2019-07-01 05:00:00 24.4 3 Nordeste 14 Oeste 0 938.7 -0.6 44
2019-07-01 04:00:00 25.5 5 Oeste 14 Oeste 0 938.6 -0.9 40
2019-07-01 03:00:00 27.6 6 Sur 17 Sur 0 938.8 -0.1 34
2019-07-01 02:00:00 29.1 10 Sur 26 Sudeste 0 939.3 0.4 33
2019-07-01 01:00:00 28.9 8 Sudeste 15 Sur 0 939.5 1.1 37
2019-07-01 00:00:00 29.9 5 Noroeste 17 Noroeste 0 938.9 0.7 36
2019-06-30 23:00:00 30.8 6 Oeste 20 Oeste 0 938.9 0.7 34
2019-06-30 22:00:00 32.4 10 Oeste 27 Oeste 0 938.4 0.1 34
2019-06-30 21:00:00 33.9 7 Sudoeste 22 Sudoeste 0 938.2 -0.9 34
2019-06-30 20:00:00 34.8 7 Oeste 16 Sudoeste 0 938.2 -1.6 33
2019-06-30 19:00:00 36.3 4 Sudoeste 24 Oeste 0 938.3 -1.8 31
2019-06-30 18:00:00 36.7 4 Sudoeste 26 Sudoeste 0 939.1 -1.3 31
2019-06-30 17:00:00 35.2 7 Sudoeste 24 Sudoeste 0 939.8 -1.1 34
2019-06-30 16:00:00 37.2 6 Sudoeste 28 Sur 0 940.1 -1 29
2019-06-30 15:00:00 37.4 5 Sur 27 Sur 0 940.4 -0.8 31
2019-06-30 14:00:00 35.3 7 Sur 17 Sur 0 940.9 -0.1 31
2019-06-30 13:00:00 30.6 3 Sudeste 9 Sudeste 0 941.1 0.6 34
2019-06-30 12:00:00 30 0 Calma 12 Sudeste 0 941.2 1 34
2019-06-30 11:00:00 30.8 3 Sudeste 11 Nordeste 0 941 1.5 33
2019-06-30 10:00:00 27.7 4 Este 9 Este 0 940.5 1.3 34
2019-06-30 09:00:00 26.3 5 Sudeste 10 Sudeste 0 940.2 1.4 35
2019-06-30 08:00:00 25.5 4 Nordeste 15 Este 0 939.5 0.6 35
2019-06-30 07:00:00 26.1 7 Este 14 Este 0 939.2 0.4 33
2019-06-30 06:00:00 27.1 6 Este 19 Este 0 938.8 -0.4 32
2019-06-30 05:00:00 27.5 6 Este 21 Este 0 938.9 0.3 32
2019-06-30 04:00:00 28.7 11 Este 17 Este 0 938.8 0.1 31
2019-06-30 03:00:00 28.4 4 Este 24 Sudeste 0 939.2 1 33
2019-06-30 02:00:00 30.7 11 Sudeste 28 Sudeste 0 938.6 0.8 28
2019-06-30 01:00:00 31.7 14 Sudeste 27 Sudeste 0 938.7 1.6 28
2019-06-30 00:00:00 32.1 10 Sudeste 19 Sudeste 0 938.2 0.9 27
2019-06-29 23:00:00 31.2 8 Sudeste 14 Sudeste 0 937.8 0.7 28
2019-06-29 22:00:00 33.2 6 Sudeste 15 Sur 0 937.1 0.1 26
2019-06-29 21:00:00 35.9 6 Sur 19 Sur 0 937.3 -0.2 25
2019-06-29 20:00:00 37.9 5 Sudoeste 22 Sudeste 0 937.1 -0.8 27
2019-06-29 19:00:00 38.2 4 Oeste 22 Sudeste 0 937 -1.5 28
2019-06-29 18:00:00 39.2 4 Sur 24 Sur 0 937.5 -1.3 27
2019-06-29 17:00:00 39.4 3 Sudeste 16 Este 0 937.9 -1.7 28
2019-06-29 16:00:00 39.3 0 Calma 15 Sudoeste 0 938.5 -1.4 28
2019-06-29 15:00:00 37.7 5 Sudeste 15 Este 0 938.8 -1.3 30
2019-06-29 14:00:00 36.7 5 Sudeste 17 Sudeste 0 939.6 -0.5 32
2019-06-29 13:00:00 35.2 2 Este 17 Sudeste 0 939.9 -0.1 33
2019-06-29 12:00:00 32.4 5 Este 19 Sudeste 0 940.1 0.3 33
2019-06-29 11:00:00 30.1 5 Este 18 Sudeste 0 940.1 0.8 34
2019-06-29 10:00:00 28.2 8 Este 19 Este 0 940 0.9 35
2019-06-29 09:00:00 25.9 10 Nordeste 20 Nordeste 0 939.8 0.5 35
2019-06-29 08:00:00 24.4 6 Nordeste 24 Nordeste 0 939.3 -0.4 36
2019-06-29 07:00:00 25 8 Nordeste 19 Nordeste 0 939.1 -0.4 36
2019-06-29 06:00:00 25.9 10 Sudeste 22 Sudeste 0 939.3 -0.5 36
2019-06-29 05:00:00 26.7 6 Sudeste 18 Este 0 939.7 0 30
2019-06-29 04:00:00 27.7 10 Este 22 Este 0 939.5 -0.1 30
2019-06-29 03:00:00 27.3 6 Este 16 Este 0 939.8 0.6 33
2019-06-29 02:00:00 28.7 7 Este 14 Sudeste 0 939.7 1 30
2019-06-29 01:00:00 29.2 6 Sur 25 Sudeste 0 939.6 1.7 29
2019-06-29 00:00:00 32.3 10 Sudeste 24 Este 0 939.2 1.4 26
2019-06-28 23:00:00 33.7 13 Sudeste 30 Sudeste 0 938.7 1 25
2019-06-28 22:00:00 35.2 14 Sudeste 32 Sudeste 0 937.9 0.1 24
2019-06-28 21:00:00 36.6 15 Sudeste 38 Sur 0 937.8 -0.3 24
2019-06-28 20:00:00 37.7 15 Sur 33 Sudeste 0 937.7 -0.9 24
2019-06-28 19:00:00 38.8 14 Sudeste 33 Sur 0 937.8 -1.4 24
2019-06-28 18:00:00 39.6 16 Sudeste 37 Sur 0 938.1 -1.9 24
2019-06-28 17:00:00 39.9 16 Sudeste 35 Sur 0 938.6 -2.2 24
2019-06-28 16:00:00 40 12 Sudeste 28 Este 0 939.2 -2.1 26
2019-06-28 15:00:00 38.8 11 Sudeste 26 Sudeste 0 940 -1.8 29
2019-06-28 14:00:00 36.5 13 Sudeste 28 Sudeste 0 940.8 -1 32
2019-06-28 13:00:00 34.8 9 Este 24 Sudeste 0 941.3 -0.6 34
2019-06-28 12:00:00 32.6 8 Este 18 Este 0 941.8 -0.4 38
2019-06-28 11:00:00 30.1 8 Este 19 Este 0 941.8 -0.1 41
2019-06-28 10:00:00 27.6 9 Este 22 Nordeste 0 941.9 -0.1 44
2019-06-28 09:00:00 25.3 13 Nordeste 23 Nordeste 0 942.2 1 46
2019-06-28 08:00:00 24.1 3 Nordeste 14 Este 0 941.9 0.6 49
2019-06-28 07:00:00 24 5 Este 17 Este 0 942 0.6 47
2019-06-28 06:00:00 24.6 9 Este 16 Este 0 941.2 -0.1 47
2019-06-28 05:00:00 25.1 6 Este 15 Este 0 941.3 -0.2 48
2019-06-28 04:00:00 25.3 2 Sudeste 13 Sur 0 941.4 0.2 48
2019-06-28 03:00:00 26.9 6 Sudeste 14 Sudeste 0 941.3 0.8 44
2019-06-28 02:00:00 27.3 6 Sudeste 24 Sur 0 941.5 1.2 43
2019-06-28 01:00:00 28.6 14 Sudeste 32 Sudeste 0 941.2 1.9 41
2019-06-28 00:00:00 29.7 12 Sudeste 36 Sudeste 0 940.5 1.9 39
2019-06-27 23:00:00 31.2 15 Sudeste 42 Sudeste 0 940.3 2.5 37
2019-06-27 22:00:00 32.9 20 Sudeste 46 Sudeste 0 939.3 1.6 35
2019-06-27 21:00:00 34.9 22 Sudeste 51 Sudeste 0 938.6 0.4 33
2019-06-27 20:00:00 36.8 21 Sudeste 41 Sudeste 0 937.8 -1 31
2019-06-27 19:00:00 37.8 23 Sur 52 Sudeste 0 937.7 -1.8 29
2019-06-27 18:00:00 37.7 13 Sur 41 Sudeste 0 938.2 -2.1 31
2019-06-27 17:00:00 35.5 12 Sur 33 Sur 0 938.8 -1.9 35
2019-06-27 16:00:00 37.3 12 Sur 34 Sudoeste 0 939.5 -2 33
2019-06-27 15:00:00 35.4 15 Sur 40 Sudoeste 0 940.3 -1 35
2019-06-27 14:00:00 33.2 18 Sur 38 Sur 0 940.7 -0.2 37
2019-06-27 13:00:00 32.5 12 Sur 40 Sur 0 941.5 0.6 38
2019-06-27 12:00:00 31.6 17 Sur 32 Sudeste 0 941.3 0.8 37
2019-06-27 11:00:00 30 14 Sudeste 30 Sudeste 0 940.9 0 38
2019-06-27 10:00:00 27.7 6 Nordeste 16 Sudeste 0 940.9 -0.2 43
2019-06-27 09:00:00 25.7 8 Sudeste 20 Este 0 940.5 -0.7 47
2019-06-27 08:00:00 24.2 5 Nordeste 18 Nordeste 0 940.9 0 49
2019-06-27 07:00:00 23.6 8 Este 20 Este 0 941.1 0.2 51
2019-06-27 06:00:00 23.7 4 Este 16 Este 0 941.2 0.4 52
2019-06-27 05:00:00 24.5 6 Sudeste -- -- 0 940.9 0.3 53
2019-06-27 04:00:00 25 14 Sur 32 Sudeste 0 940.9 0.2 53
2019-06-27 03:00:00 26.1 13 Sudeste 31 Sur 0 940.8 0.8 50
2019-06-27 02:00:00 27 16 Sudeste 33 Sur 0 940.6 1.3 48
2019-06-27 01:00:00 27.8 15 Sur 31 Sur 0 940.7 2.3 46
2019-06-27 00:00:00 29.5 16 Sudeste 42 Sudeste 0 940 1.7 44
2019-06-26 23:00:00 31.4 17 Sudeste 30 Sudeste 0 939.3 1.5 42
2019-06-26 22:00:00 32.4 8 Sudeste 26 Sudeste 0 938.4 0.7 38
2019-06-26 21:00:00 33.3 12 Sur 28 Sur 0 938.3 0.2 35
2019-06-26 20:00:00 33.6 10 Sur 25 Sur 0 937.8 -0.8 36
2019-06-26 19:00:00 34.3 10 Sur 30 Sur 0 937.7 -1.5 35
2019-06-26 18:00:00 34.5 11 Sur 26 Sur 0 938.1 -1.7 36
2019-06-26 17:00:00 34.9 10 Sur 28 Sur 0 938.6 -1.5 36
2019-06-26 16:00:00 34.7 12 Sur 30 Sur 0 939.2 -1.4 37
2019-06-26 15:00:00 32.9 9 Sudeste 27 Sudoeste 0 939.8 -1 39
2019-06-26 14:00:00 32.9 5 Sur 19 Sur 0 940.1 -0.7 41
2019-06-26 13:00:00 31.2 6 Sur 18 Sudoeste 0 940.6 -0.1 43
2019-06-26 12:00:00 29.1 3 Sur 14 Sur 0 940.8 0.5 47
2019-06-26 11:00:00 26.8 3 Sur 12 Sudoeste 0 940.8 1.1 54
2019-06-26 10:00:00 25.3 4 Sudeste 10 Sudeste 0 940.7 1.3 61
2019-06-26 09:00:00 23.2 2 Sudeste 10 Este 0 940.3 1.4 66
2019-06-26 08:00:00 22.2 5 Sudeste 11 Sur 0 939.7 1.2 67
2019-06-26 07:00:00 22.3 5 Sur 14 Sudeste 0 939.4 0.8 67
2019-06-26 06:00:00 23 8 Sur 17 Sudeste 0 938.9 0.4 64
2019-06-26 05:00:00 23.8 8 Sudeste 16 Sudeste 0 938.5 0.2 61
2019-06-26 04:00:00 24.5 9 Sur 28 Sur 0 938.6 0.6 60
2019-06-26 03:00:00 25.4 10 Sudeste 30 Sur 0 938.5 0.9 57
2019-06-26 02:00:00 26.4 14 Sur 23 Sur 0 938.3 1.3 50
2019-06-26 01:00:00 26.3 5 Sur 11 Sur 0 938 1.2 40
2019-06-26 00:00:00 27.3 5 Oeste 15 Oeste 0 937.6 0.9 40
2019-06-25 23:00:00 27.8 7 Oeste 15 Oeste 0 937 0.2 40
2019-06-25 22:00:00 30 5 Oeste 22 Sur 0 936.8 -0.1 37
2019-06-25 21:00:00 32 8 Sur 26 Sur 0 936.7 -0.6 34
2019-06-25 20:00:00 33 12 Sudoeste 27 Sur 0 936.8 -1.1 34
2019-06-25 19:00:00 33.6 8 Sur 34 Sudeste 0 936.9 -1.6 33
2019-06-25 18:00:00 32.9 8 Sudoeste 27 Sur 0 937.3 -1.5 35
2019-06-25 17:00:00 33 9 Sur 29 Sudeste 0 937.9 -1.4 37
2019-06-25 16:00:00 33.1 11 Sur 26 Sudoeste 0 938.5 -1.2 35
2019-06-25 15:00:00 32.3 6 Sur 27 Sudoeste 0 938.8 -1.2 39
2019-06-25 14:00:00 31.3 9 Sudoeste 23 Sudoeste 0 939.3 -0.3 42
2019-06-25 13:00:00 29.4 6 Sur 22 Sudoeste 0 939.7 0.2 46
2019-06-25 12:00:00 28 6 Sur 14 Sur 0 940 1 50
2019-06-25 11:00:00 25 4 Sur 12 Sudeste 0 939.6 1.2 55
2019-06-25 10:00:00 23.2 0 Calma 8 Sudeste 0 939.5 1.1 59
2019-06-25 09:00:00 21.3 3 Este 8 Sudeste 0 939 1.3 63
2019-06-25 08:00:00 19.2 0 Calma 6 Sudeste 0 938.4 1.1 70
2019-06-25 07:00:00 19 0 Calma -- -- 0 938.4 0.2 68
2019-06-25 06:00:00 19.4 0 Calma 6 Oeste 0 937.7 -0.4 67
2019-06-25 05:00:00 20.1 0 Calma 6 Noroeste 0 937.3 -0.6 63
2019-06-25 04:00:00 20.9 0 Calma 9 Oeste 0 938.2 0.6 59
2019-06-25 03:00:00 21.9 3 Noroeste 9 Sudoeste 0 938.1 1 56
2019-06-25 02:00:00 22.8 0 Calma 9 Sudoeste 0 937.9 0.9 54
2019-06-25 01:00:00 23.4 4 Este 9 Este 0 937.6 1.5 53
2019-06-25 00:00:00 23.7 5 Noroeste 14 Norte 0 937.1 1.3 50
2019-06-24 23:00:00 25.1 6 Noroeste 26 Noroeste 0 937 1.6 46
2019-06-24 22:00:00 28 8 Oeste 22 Sudoeste 0 936.1 0.6 40
2019-06-24 21:00:00 28.9 11 Oeste 24 Oeste 0 935.8 0.1 40
2019-06-24 20:00:00 30.2 8 Sudoeste 18 Sudoeste 0 935.4 -0.6 38
2019-06-24 19:00:00 30.5 6 Sur 22 Sur 0 935.5 -0.9 38
2019-06-24 18:00:00 30.5 13 Sur 29 Sur 0 935.7 -0.8 38
2019-06-24 17:00:00 28.8 6 Sur 21 Sur 0 936 -0.9 42
2019-06-24 16:00:00 29.7 8 Sudeste 26 Sudoeste 0 936.4 -0.8 39
2019-06-24 15:00:00 30.6 9 Sudoeste 24 Sudoeste 0 936.5 -1.3 38
2019-06-24 14:00:00 29.5 6 Sudoeste 20 Sudoeste 0 936.9 -0.6 38
2019-06-24 13:00:00 27.9 3 Sudeste 15 Sur 0 937.2 -0.4 40
2019-06-24 12:00:00 25.1 3 Sur 14 Este 0 937.8 1 43
2019-06-24 11:00:00 23.4 4 Sudeste 11 Sudeste 0 937.5 0.9 44
2019-06-24 10:00:00 23.1 3 Sur 11 Sudeste 0 937.6 0.9 45
2019-06-24 09:00:00 21.4 6 Este 15 Este 0 936.8 0.3 46
2019-06-24 08:00:00 20.9 6 Este 15 Este 0 936.6 0.4 46
2019-06-24 07:00:00 21 7 Este 15 Este 0 936.7 0.2 45
2019-06-24 06:00:00 21.8 6 Sudeste 16 Sudeste 0 936.5 -0.2 43
2019-06-24 05:00:00 22.3 13 Sudeste 24 Sudeste 0 936.2 -0.3 43
2019-06-24 04:00:00 23.3 10 Sudeste 32 Sur 0 936.5 0.4 42
2019-06-24 03:00:00 24.6 12 Sur 28 Sudeste 0 936.7 0.9 40
2019-06-24 02:00:00 25.3 10 Sur 22 Sur 0 936.5 1.7 39
2019-06-24 01:00:00 24.4 6 Sur 11 Sur 0 936.1 1.5 40
2019-06-24 00:00:00 25.8 0 Calma 15 Oeste 0 935.8 1.3 38
2019-06-23 23:00:00 27 6 Noroeste 16 Oeste 0 934.8 0.2 37
2019-06-23 22:00:00 28.1 7 Oeste 15 Oeste 0 934.6 -0.2 35
2019-06-23 21:00:00 29.1 6 Noroeste 13 Oeste 0 934.5 -0.7 35
2019-06-23 20:00:00 30.4 3 Sudoeste 17 Sudoeste 0 934.6 -1.3 34
2019-06-23 19:00:00 30.8 5 Sudoeste 16 Sudoeste 0 934.8 -1.8 34
2019-06-23 18:00:00 31.1 4 Sudoeste 26 Sudoeste 0 935.2 -1.8 34
2019-06-23 17:00:00 31.8 3 Sudoeste 26 Sudeste 0 935.9 -1.6 31
2019-06-23 16:00:00 31.9 6 Sudoeste 29 Sudoeste 0 936.6 -1.4 30
2019-06-23 15:00:00 32 6 Oeste 25 Oeste 0 937 -0.7 31
2019-06-23 14:00:00 30.8 9 Sudoeste 22 Sudoeste 0 937.5 -0.1 32
2019-06-23 13:00:00 29 5 Sudeste 16 Sudeste 0 938 0.5 36
2019-06-23 12:00:00 27.9 3 Sudeste 17 Sudeste 0 937.7 0.7 41
2019-06-23 11:00:00 25.3 3 Sudeste 14 Sudeste 0 937.6 1.1 50
2019-06-23 10:00:00 23.4 5 Este 12 Sudeste 0 937.5 1.3 54
2019-06-23 09:00:00 21.2 7 Sudeste 13 Este 0 937 1.2 58
2019-06-23 08:00:00 19.2 4 Este 7 Este 0 936.5 0.5 63
2019-06-23 07:00:00 18.5 0 Calma 5 Sudeste 0 936.2 0.3 62
2019-06-23 06:00:00 19 0 Calma 9 Sur 0 935.8 0 60
2019-06-23 05:00:00 20.5 5 Sur 10 Sudeste 0 936 0 56
2019-06-23 04:00:00 22.3 7 Sudeste 16 Sudeste 0 935.9 -0.2 50
2019-06-23 03:00:00 22.1 2 Sudeste 18 Este 0 935.8 -0.4 44
2019-06-23 02:00:00 22.3 0 Calma 4 Norte 0 936 -0.2 43
2019-06-23 01:00:00 23.1 0 Calma 8 Oeste 0 936.1 0.3 41
2019-06-23 00:00:00 23.5 5 Oeste 9 Oeste 0 936.2 0.6 40
2019-06-22 23:00:00 24.7 5 Noroeste 10 Noroeste 0 936.2 0.5 39
2019-06-22 22:00:00 26.1 4 Oeste 11 Oeste 0 935.8 -0.1 37
2019-06-22 21:00:00 28 6 Oeste 16 Sudoeste 0 935.6 -0.7 35
2019-06-22 20:00:00 29.3 12 Sudoeste 24 Oeste 0 935.7 -1 34
2019-06-22 19:00:00 29.8 10 Oeste 22 Sudoeste 0 935.9 -1.4 34
2019-06-22 18:00:00 30.4 7 Sudoeste 22 Sudoeste 0 936.3 -1.7 34
2019-06-22 17:00:00 30.8 6 Oeste 24 Sudoeste 0 936.7 -1.9 34
2019-06-22 16:00:00 31.1 6 Sudoeste 28 Sudoeste 0 937.3 -1.8 35
2019-06-22 15:00:00 30.2 8 Sudoeste 22 Sur 0 938 -1.7 37
2019-06-22 14:00:00 29.3 4 Sudeste 19 Este 0 938.6 0 43
2019-06-22 13:00:00 26.8 3 Este 17 Sudeste 0 939.1 -0.5 48
2019-06-22 12:00:00 24.8 6 Sudeste 17 Sudeste 0 939.7 0.1 52
2019-06-22 11:00:00 22.6 5 Este 17 Este 0 938.6 -0.8 57
2019-06-22 10:00:00 20 5 Nordeste 15 Nordeste 0 939.6 0.5 59
2019-06-22 09:00:00 17.9 12 Nordeste 20 Nordeste 0 939.6 0.8 60
2019-06-22 08:00:00 17.3 9 Nordeste 20 Nordeste 0 939.4 0.5 61
2019-06-22 07:00:00 17.1 9 Nordeste 21 Nordeste 0 939.1 0.1 61
2019-06-22 06:00:00 17.3 10 Nordeste 22 Nordeste 0 938.8 -0.4 60
2019-06-22 05:00:00 17.7 12 Nordeste 24 Nordeste 0 938.9 -0.4 59
2019-06-22 04:00:00 18.2 10 Nordeste 27 Nordeste 0 939 0.6 58
2019-06-22 03:00:00 19.3 15 Nordeste 33 Nordeste 0 939.2 0.1 55
2019-06-22 02:00:00 20.4 16 Nordeste 33 Nordeste 0 939.3 0.6 51
2019-06-22 01:00:00 21.6 16 Nordeste 33 Nordeste 0 938.4 0.5 47
2019-06-22 00:00:00 22.5 13 Nordeste 35 Nordeste 0 939.1 1.6 44
2019-06-21 23:00:00 23.8 12 Nordeste 23 Norte 0 938.7 1.7 41
2019-06-21 22:00:00 24.8 10 Norte 24 Norte 0 937.9 1.1 40
2019-06-21 21:00:00 26.3 8 Norte 17 Nordeste 0 937.5 0.6 40
2019-06-21 20:00:00 26.9 3 Nordeste 17 Sudoeste 0 937 -0.1 37
2019-06-21 19:00:00 28 5 Oeste 19 Oeste 0 936.8 -0.7 36
2019-06-21 18:00:00 28.2 7 Oeste 23 Oeste 0 936.9 -0.7 37
2019-06-21 17:00:00 28.9 5 Sudoeste 23 Oeste 0 937.1 -0.8 36
2019-06-21 16:00:00 29.3 5 Sudoeste 27 Sudoeste 0 937.5 -0.7 37
2019-06-21 15:00:00 29 4 Sudoeste 17 Sudoeste 0 937.6 -0.7 38
2019-06-21 14:00:00 27.5 4 Sur 17 Sudoeste 0 937.9 -0.4 41
2019-06-21 13:00:00 26.6 2 Sudoeste 18 Sudoeste 0 938.2 0.3 45
2019-06-21 12:00:00 25.2 4 Este 13 Norte 0 938.3 0.8 50
2019-06-21 11:00:00 23.3 8 Sudeste 17 Nordeste 0 938.3 1.1 55
2019-06-21 10:00:00 20.5 6 Nordeste 21 Este 0 937.9 1.1 61
2019-06-21 09:00:00 19.2 7 Nordeste 27 Nordeste 0 937.5 1 63
2019-06-21 08:00:00 18 9 Nordeste 24 Nordeste 0 937.2 0.8 64
2019-06-21 07:00:00 17.8 12 Nordeste 26 Nordeste 0 936.8 1.2 63
2019-06-21 06:00:00 18 12 Nordeste 30 Nordeste 0 936.5 -0.1 63
2019-06-21 05:00:00 18.6 10 Nordeste 26 Nordeste 0 936.4 0.3 61
2019-06-21 04:00:00 19.4 8 Nordeste 22 Este 0 935.6 -0.5 58
2019-06-21 03:00:00 20.1 6 Este 18 Este 0 936.6 0.7 55
2019-06-21 02:00:00 20.3 5 Noroeste 15 Noroeste 0 936.1 0.8 53
2019-06-21 01:00:00 20.6 6 Noroeste 16 Noroeste 0 936.1 1.4 53
2019-06-21 00:00:00 21.7 5 Noroeste 25 Oeste 0 935.9 1.3 50
2019-06-20 23:00:00 23 10 Oeste 28 Oeste 0 935.3 0.9 47
2019-06-20 22:00:00 23.8 13 Oeste 32 Oeste 0 934.7 0.2 45
2019-06-20 21:00:00 24.9 13 Oeste 30 Oeste 0 934.6 -0.1 43
2019-06-20 20:00:00 25.8 13 Sudoeste 34 Oeste 0 934.4 -0.8 42
2019-06-20 19:00:00 26.8 13 Oeste 34 Oeste 0 934.5 -1.5 41
2019-06-20 18:00:00 26.8 12 Oeste 32 Oeste 0 934.7 -1.8 43
2019-06-20 17:00:00 26 9 Sudoeste 33 Sudoeste 0 935.2 -1.5 44
2019-06-20 16:00:00 28.1 9 Sudoeste 30 Sur 0 936 -1 40
2019-06-20 15:00:00 26.8 9 Sudoeste 27 Oeste 0 936.5 -0.6 42
2019-06-20 14:00:00 26.2 5 Sudoeste 25 Sur 0 936.7 -0.3 45
2019-06-20 13:00:00 25.3 6 Sudoeste 22 Oeste 0 937 0.3 47
2019-06-20 12:00:00 23.6 3 Sudoeste 13 Sudoeste 0 937.1 0 50
2019-06-20 11:00:00 21.6 3 Sudeste 14 Este 0 937 0.2 53
2019-06-20 10:00:00 20.9 8 Sudeste 15 Sudeste 0 936.7 0.1 55
2019-06-20 09:00:00 19 6 Este 13 Este 0 937.1 0.7 59
2019-06-20 08:00:00 17.7 3 Nordeste 10 Nordeste 0 936.8 0.6 61
2019-06-20 07:00:00 17.8 7 Nordeste 14 Nordeste 0 936.6 0.2 60
2019-06-20 06:00:00 18.1 5 Nordeste 11 Nordeste 0 936.4 0.1 59
2019-06-20 05:00:00 18.5 4 Nordeste 10 Norte 0 936.2 -0.4 60
2019-06-20 04:00:00 18.3 3 Norte 10 Noroeste 0 936.4 -0.9 61
2019-06-20 03:00:00 18.7 5 Noroeste 12 Oeste 0 936.3 -0.8 58
2019-06-20 02:00:00 19.9 7 Noroeste 16 Oeste 0 936.6 -0.7 55
2019-06-20 01:00:00 20.5 6 Oeste 19 Oeste 0 937.3 0.2 53
2019-06-20 00:00:00 21.6 9 Oeste 25 Oeste 0 937.1 0.2 49